sensor_id;sensor_type;location;lat;lon;timestamp;temperature;humidity
13798;DHT22;6970;51.340;3.240;2022-12-29T00:00:13;11.20;99.90
13798;DHT22;6970;51.340;3.240;2022-12-29T00:02:43;11.10;99.90
13798;DHT22;6970;51.340;3.240;2022-12-29T00:05:14;11.10;99.90
13798;DHT22;6970;51.340;3.240;2022-12-29T00:07:44;11.00;99.90
13798;DHT22;6970;51.340;3.240;2022-12-29T00:10:11;11.00;99.90
13798;DHT22;6970;51.340;3.240;2022-12-29T00:12:39;10.90;99.90
13798;DHT22;6970;51.340;3.240;2022-12-29T00:15:25;10.90;99.90
13798;DHT22;6970;51.340;3.240;2022-12-29T00:18:07;10.90;99.90
13798;DHT22;6970;51.340;3.240;2022-12-29T00:20:38;10.90;99.90
13798;DHT22;6970;51.340;3.240;2022-12-29T00:23:36;10.90;99.90
13798;DHT22;6970;51.340;3.240;2022-12-29T00:26:27;10.80;99.90
13798;DHT22;6970;51.340;3.240;2022-12-29T00:29:12;10.80;99.90
13798;DHT22;6970;51.340;3.240;2022-12-29T00:32:01;10.90;99.90
13798;DHT22;6970;51.340;3.240;2022-12-29T00:34:49;10.80;99.90
13798;DHT22;6970;51.340;3.240;2022-12-29T00:37:45;10.90;99.90
13798;DHT22;6970;51.340;3.240;2022-12-29T00:40:33;10.90;99.90
13798;DHT22;6970;51.340;3.240;2022-12-29T00:43:22;10.90;99.90
13798;DHT22;6970;51.340;3.240;2022-12-29T00:46:10;10.90;99.90
13798;DHT22;6970;51.340;3.240;2022-12-29T00:48:45;10.90;99.90
13798;DHT22;6970;51.340;3.240;2022-12-29T00:51:34;10.90;99.90
13798;DHT22;6970;51.340;3.240;2022-12-29T00:54:01;10.90;99.90
13798;DHT22;6970;51.340;3.240;2022-12-29T00:56:28;10.90;99.90
13798;DHT22;6970;51.340;3.240;2022-12-29T00:59:07;10.90;99.90
13798;DHT22;6970;51.340;3.240;2022-12-29T01:01:37;11.00;99.90
13798;DHT22;6970;51.340;3.240;2022-12-29T01:04:08;11.00;99.90
13798;DHT22;6970;51.340;3.240;2022-12-29T01:06:37;10.90;99.90
13798;DHT22;6970;51.340;3.240;2022-12-29T01:09:05;11.00;99.90
13798;DHT22;6970;51.340;3.240;2022-12-29T01:11:54;10.90;99.90
13798;DHT22;6970;51.340;3.240;2022-12-29T01:14:23;11.00;99.90
13798;DHT22;6970;51.340;3.240;2022-12-29T01:16:51;11.00;99.90
13798;DHT22;6970;51.340;3.240;2022-12-29T01:19:22;11.00;99.90
13798;DHT22;6970;51.340;3.240;2022-12-29T01:21:51;11.00;99.90
13798;DHT22;6970;51.340;3.240;2022-12-29T01:24:20;11.00;99.90
13798;DHT22;6970;51.340;3.240;2022-12-29T01:26:49;11.00;99.90
13798;DHT22;6970;51.340;3.240;2022-12-29T01:29:16;11.00;99.90
13798;DHT22;6970;51.340;3.240;2022-12-29T01:31:46;11.00;99.90
13798;DHT22;6970;51.340;3.240;2022-12-29T01:34:13;11.00;99.90
13798;DHT22;6970;51.340;3.240;2022-12-29T01:36:40;10.90;99.90
13798;DHT22;6970;51.340;3.240;2022-12-29T01:39:10;10.90;99.90
13798;DHT22;6970;51.340;3.240;2022-12-29T01:41:37;10.80;99.90
13798;DHT22;6970;51.340;3.240;2022-12-29T01:47:11;10.80;99.90
13798;DHT22;6970;51.340;3.240;2022-12-29T01:49:39;10.80;99.90
13798;DHT22;6970;51.340;3.240;2022-12-29T01:52:07;10.80;99.90
13798;DHT22;6970;51.340;3.240;2022-12-29T01:57:11;10.70;99.90
13798;DHT22;6970;51.340;3.240;2022-12-29T01:59:48;10.70;99.90
13798;DHT22;6970;51.340;3.240;2022-12-29T02:02:18;10.70;99.90
13798;DHT22;6970;51.340;3.240;2022-12-29T02:04:49;10.60;99.90
13798;DHT22;6970;51.340;3.240;2022-12-29T02:07:21;10.60;99.90
13798;DHT22;6970;51.340;3.240;2022-12-29T02:09:52;10.60;99.90
13798;DHT22;6970;51.340;3.240;2022-12-29T02:12:24;10.60;99.90
13798;DHT22;6970;51.340;3.240;2022-12-29T02:14:55;10.60;99.90
13798;DHT22;6970;51.340;3.240;2022-12-29T02:32:32;10.80;99.90
13798;DHT22;6970;51.340;3.240;2022-12-29T02:38:20;10.70;99.90
13798;DHT22;6970;51.340;3.240;2022-12-29T02:41:33;10.70;99.90
13798;DHT22;6970;51.340;3.240;2022-12-29T02:50:02;10.50;99.90
13798;DHT22;6970;51.340;3.240;2022-12-29T02:52:36;10.40;99.90
13798;DHT22;6970;51.340;3.240;2022-12-29T02:55:05;10.40;99.90
13798;DHT22;6970;51.340;3.240;2022-12-29T02:57:35;10.40;99.90
13798;DHT22;6970;51.340;3.240;2022-12-29T03:00:11;10.30;99.90
13798;DHT22;6970;51.340;3.240;2022-12-29T03:03:16;10.30;99.90
13798;DHT22;6970;51.340;3.240;2022-12-29T03:08:55;10.30;99.90
13798;DHT22;6970;51.340;3.240;2022-12-29T03:11:31;10.30;99.90
13798;DHT22;6970;51.340;3.240;2022-12-29T03:14:28;10.30;99.90
13798;DHT22;6970;51.340;3.240;2022-12-29T03:20:01;10.30;99.90
13798;DHT22;6970;51.340;3.240;2022-12-29T03:22:34;10.30;99.90
13798;DHT22;6970;51.340;3.240;2022-12-29T03:27:46;10.30;99.90
13798;DHT22;6970;51.340;3.240;2022-12-29T03:30:15;10.30;99.90
13798;DHT22;6970;51.340;3.240;2022-12-29T03:32:57;10.30;99.90
13798;DHT22;6970;51.340;3.240;2022-12-29T03:35:30;10.30;99.90
13798;DHT22;6970;51.340;3.240;2022-12-29T03:38:18;10.30;99.90
13798;DHT22;6970;51.340;3.240;2022-12-29T03:40:49;10.40;99.90
13798;DHT22;6970;51.340;3.240;2022-12-29T03:43:18;10.40;99.90
13798;DHT22;6970;51.340;3.240;2022-12-29T03:45:46;10.30;99.90
13798;DHT22;6970;51.340;3.240;2022-12-29T03:48:14;10.40;99.90
13798;DHT22;6970;51.340;3.240;2022-12-29T03:50:44;10.30;99.90
13798;DHT22;6970;51.340;3.240;2022-12-29T03:53:14;10.30;99.90
13798;DHT22;6970;51.340;3.240;2022-12-29T03:55:45;10.30;99.90
13798;DHT22;6970;51.340;3.240;2022-12-29T03:58:15;10.30;99.90
13798;DHT22;6970;51.340;3.240;2022-12-29T04:00:47;10.30;99.90
13798;DHT22;6970;51.340;3.240;2022-12-29T04:03:16;10.30;99.90
13798;DHT22;6970;51.340;3.240;2022-12-29T04:05:46;10.30;99.90
13798;DHT22;6970;51.340;3.240;2022-12-29T04:08:16;10.30;99.90
13798;DHT22;6970;51.340;3.240;2022-12-29T04:10:45;10.30;99.90
13798;DHT22;6970;51.340;3.240;2022-12-29T04:13:15;10.30;99.90
13798;DHT22;6970;51.340;3.240;2022-12-29T04:15:44;10.30;99.90
13798;DHT22;6970;51.340;3.240;2022-12-29T04:18:15;10.30;99.90
13798;DHT22;6970;51.340;3.240;2022-12-29T04:20:46;10.30;99.90
13798;DHT22;6970;51.340;3.240;2022-12-29T04:23:33;10.30;99.90
13798;DHT22;6970;51.340;3.240;2022-12-29T04:26:05;10.30;99.90
13798;DHT22;6970;51.340;3.240;2022-12-29T04:28:36;10.20;99.90
13798;DHT22;6970;51.340;3.240;2022-12-29T04:31:04;10.20;99.90
13798;DHT22;6970;51.340;3.240;2022-12-29T04:33:34;10.20;99.90
13798;DHT22;6970;51.340;3.240;2022-12-29T04:36:03;10.20;99.90
13798;DHT22;6970;51.340;3.240;2022-12-29T04:38:32;10.20;99.90
13798;DHT22;6970;51.340;3.240;2022-12-29T04:41:02;10.20;99.90
13798;DHT22;6970;51.340;3.240;2022-12-29T04:43:31;10.20;99.90
13798;DHT22;6970;51.340;3.240;2022-12-29T04:46:01;10.20;99.90
13798;DHT22;6970;51.340;3.240;2022-12-29T04:48:31;10.30;99.90
13798;DHT22;6970;51.340;3.240;2022-12-29T04:51:01;10.20;99.90
13798;DHT22;6970;51.340;3.240;2022-12-29T04:53:29;10.30;99.90
13798;DHT22;6970;51.340;3.240;2022-12-29T04:55:59;10.30;99.90
13798;DHT22;6970;51.340;3.240;2022-12-29T04:58:27;10.30;99.90
13798;DHT22;6970;51.340;3.240;2022-12-29T05:00:56;10.30;99.90
13798;DHT22;6970;51.340;3.240;2022-12-29T05:03:31;10.30;99.90
13798;DHT22;6970;51.340;3.240;2022-12-29T05:06:05;10.30;99.90
13798;DHT22;6970;51.340;3.240;2022-12-29T05:08:34;10.30;99.90
13798;DHT22;6970;51.340;3.240;2022-12-29T05:11:01;10.30;99.90
13798;DHT22;6970;51.340;3.240;2022-12-29T05:13:31;10.30;99.90
13798;DHT22;6970;51.340;3.240;2022-12-29T05:16:02;10.30;99.90
13798;DHT22;6970;51.340;3.240;2022-12-29T05:18:31;10.30;99.90
13798;DHT22;6970;51.340;3.240;2022-12-29T05:21:00;10.30;99.90
13798;DHT22;6970;51.340;3.240;2022-12-29T05:23:28;10.30;99.90
13798;DHT22;6970;51.340;3.240;2022-12-29T05:25:55;10.30;99.90
13798;DHT22;6970;51.340;3.240;2022-12-29T05:28:24;10.20;99.90
13798;DHT22;6970;51.340;3.240;2022-12-29T05:30:51;10.20;99.90
13798;DHT22;6970;51.340;3.240;2022-12-29T05:33:19;10.20;99.90
13798;DHT22;6970;51.340;3.240;2022-12-29T05:35:49;10.20;99.90
13798;DHT22;6970;51.340;3.240;2022-12-29T05:38:17;10.20;99.90
13798;DHT22;6970;51.340;3.240;2022-12-29T05:40:44;10.10;99.90
13798;DHT22;6970;51.340;3.240;2022-12-29T05:43:17;10.00;99.90
13798;DHT22;6970;51.340;3.240;2022-12-29T05:45:50;9.90;99.90
13798;DHT22;6970;51.340;3.240;2022-12-29T05:48:18;9.90;99.90
13798;DHT22;6970;51.340;3.240;2022-12-29T05:50:49;9.90;99.90
13798;DHT22;6970;51.340;3.240;2022-12-29T05:53:19;9.90;99.90
13798;DHT22;6970;51.340;3.240;2022-12-29T05:55:49;9.90;99.90
13798;DHT22;6970;51.340;3.240;2022-12-29T05:58:17;9.90;99.90
13798;DHT22;6970;51.340;3.240;2022-12-29T06:00:46;9.90;99.90
13798;DHT22;6970;51.340;3.240;2022-12-29T06:03:14;9.80;99.90
13798;DHT22;6970;51.340;3.240;2022-12-29T06:05:45;9.80;99.90
13798;DHT22;6970;51.340;3.240;2022-12-29T06:08:12;9.80;99.90
13798;DHT22;6970;51.340;3.240;2022-12-29T06:10:43;9.70;99.90
13798;DHT22;6970;51.340;3.240;2022-12-29T06:13:13;9.70;99.90
13798;DHT22;6970;51.340;3.240;2022-12-29T06:15:44;9.70;99.90
13798;DHT22;6970;51.340;3.240;2022-12-29T06:18:13;9.70;99.90
13798;DHT22;6970;51.340;3.240;2022-12-29T06:20:48;9.70;99.90
13798;DHT22;6970;51.340;3.240;2022-12-29T06:23:16;9.70;99.90
13798;DHT22;6970;51.340;3.240;2022-12-29T06:25:47;9.70;99.90
13798;DHT22;6970;51.340;3.240;2022-12-29T06:28:15;9.70;99.90
13798;DHT22;6970;51.340;3.240;2022-12-29T06:30:44;9.70;99.90
13798;DHT22;6970;51.340;3.240;2022-12-29T06:33:15;9.70;99.90
13798;DHT22;6970;51.340;3.240;2022-12-29T06:35:44;9.70;99.90
13798;DHT22;6970;51.340;3.240;2022-12-29T06:38:14;9.70;99.90
13798;DHT22;6970;51.340;3.240;2022-12-29T06:40:45;9.70;99.90
13798;DHT22;6970;51.340;3.240;2022-12-29T06:43:12;9.80;99.90
13798;DHT22;6970;51.340;3.240;2022-12-29T06:45:42;9.80;99.90
13798;DHT22;6970;51.340;3.240;2022-12-29T06:48:13;9.90;99.90
13798;DHT22;6970;51.340;3.240;2022-12-29T06:50:43;9.90;99.90
13798;DHT22;6970;51.340;3.240;2022-12-29T06:53:13;10.00;99.90
13798;DHT22;6970;51.340;3.240;2022-12-29T06:55:43;10.00;99.90
13798;DHT22;6970;51.340;3.240;2022-12-29T06:58:11;10.10;99.90
13798;DHT22;6970;51.340;3.240;2022-12-29T07:00:38;10.10;99.90
13798;DHT22;6970;51.340;3.240;2022-12-29T07:03:09;10.10;99.90
13798;DHT22;6970;51.340;3.240;2022-12-29T07:05:36;10.10;99.90
13798;DHT22;6970;51.340;3.240;2022-12-29T07:08:06;10.10;99.90
13798;DHT22;6970;51.340;3.240;2022-12-29T07:10:37;10.10;99.90
13798;DHT22;6970;51.340;3.240;2022-12-29T07:13:07;10.10;99.90
13798;DHT22;6970;51.340;3.240;2022-12-29T07:15:40;10.10;99.90
13798;DHT22;6970;51.340;3.240;2022-12-29T07:18:08;10.10;99.90
13798;DHT22;6970;51.340;3.240;2022-12-29T07:20:36;10.10;99.90
13798;DHT22;6970;51.340;3.240;2022-12-29T07:23:05;10.10;99.90
13798;DHT22;6970;51.340;3.240;2022-12-29T07:25:34;10.10;99.90
13798;DHT22;6970;51.340;3.240;2022-12-29T07:28:05;10.00;99.90
13798;DHT22;6970;51.340;3.240;2022-12-29T07:30:38;10.00;99.90
13798;DHT22;6970;51.340;3.240;2022-12-29T07:33:08;10.00;99.90
13798;DHT22;6970;51.340;3.240;2022-12-29T07:35:36;10.00;99.90
13798;DHT22;6970;51.340;3.240;2022-12-29T07:38:03;9.90;99.90
13798;DHT22;6970;51.340;3.240;2022-12-29T07:40:31;9.90;99.90
13798;DHT22;6970;51.340;3.240;2022-12-29T07:43:00;9.80;99.90
13798;DHT22;6970;51.340;3.240;2022-12-29T07:45:29;9.70;99.90
13798;DHT22;6970;51.340;3.240;2022-12-29T07:47:59;9.70;99.90
13798;DHT22;6970;51.340;3.240;2022-12-29T07:50:26;9.70;99.90
13798;DHT22;6970;51.340;3.240;2022-12-29T07:52:53;9.60;99.90
13798;DHT22;6970;51.340;3.240;2022-12-29T07:55:22;9.60;99.90
13798;DHT22;6970;51.340;3.240;2022-12-29T07:57:49;9.60;99.90
13798;DHT22;6970;51.340;3.240;2022-12-29T08:00:20;9.60;99.90
13798;DHT22;6970;51.340;3.240;2022-12-29T08:02:47;9.50;99.90
13798;DHT22;6970;51.340;3.240;2022-12-29T08:05:14;9.50;99.90
13798;DHT22;6970;51.340;3.240;2022-12-29T08:07:46;9.40;99.90
13798;DHT22;6970;51.340;3.240;2022-12-29T08:10:14;9.40;99.90
13798;DHT22;6970;51.340;3.240;2022-12-29T08:12:43;9.40;99.90
13798;DHT22;6970;51.340;3.240;2022-12-29T08:15:11;9.40;99.90
13798;DHT22;6970;51.340;3.240;2022-12-29T08:17:40;9.40;99.90
13798;DHT22;6970;51.340;3.240;2022-12-29T08:20:07;9.40;99.90
13798;DHT22;6970;51.340;3.240;2022-12-29T08:22:35;9.40;99.90
13798;DHT22;6970;51.340;3.240;2022-12-29T08:25:03;9.40;99.90
13798;DHT22;6970;51.340;3.240;2022-12-29T08:27:31;9.40;99.90
13798;DHT22;6970;51.340;3.240;2022-12-29T08:29:58;9.40;99.90
13798;DHT22;6970;51.340;3.240;2022-12-29T08:32:28;9.40;99.90
13798;DHT22;6970;51.340;3.240;2022-12-29T08:34:55;9.40;99.90
13798;DHT22;6970;51.340;3.240;2022-12-29T08:37:23;9.40;99.90
13798;DHT22;6970;51.340;3.240;2022-12-29T08:39:58;9.40;99.90
13798;DHT22;6970;51.340;3.240;2022-12-29T08:42:26;9.40;99.90
13798;DHT22;6970;51.340;3.240;2022-12-29T08:44:58;9.40;99.90
13798;DHT22;6970;51.340;3.240;2022-12-29T08:47:25;9.40;99.90
13798;DHT22;6970;51.340;3.240;2022-12-29T08:49:55;9.50;99.90
13798;DHT22;6970;51.340;3.240;2022-12-29T08:52:23;9.50;99.90
13798;DHT22;6970;51.340;3.240;2022-12-29T08:54:50;9.60;99.90
13798;DHT22;6970;51.340;3.240;2022-12-29T08:57:17;9.60;99.90
13798;DHT22;6970;51.340;3.240;2022-12-29T08:59:47;9.60;99.90
13798;DHT22;6970;51.340;3.240;2022-12-29T09:02:17;9.70;99.90
13798;DHT22;6970;51.340;3.240;2022-12-29T09:04:50;9.70;99.90
13798;DHT22;6970;51.340;3.240;2022-12-29T09:07:18;9.80;99.90
13798;DHT22;6970;51.340;3.240;2022-12-29T09:09:48;9.80;99.90
13798;DHT22;6970;51.340;3.240;2022-12-29T09:12:16;9.90;99.90
13798;DHT22;6970;51.340;3.240;2022-12-29T09:14:48;10.00;99.90
13798;DHT22;6970;51.340;3.240;2022-12-29T09:17:21;10.00;99.90
13798;DHT22;6970;51.340;3.240;2022-12-29T09:20:07;10.00;99.90
13798;DHT22;6970;51.340;3.240;2022-12-29T09:22:36;10.10;99.90
13798;DHT22;6970;51.340;3.240;2022-12-29T09:25:04;10.20;99.90
13798;DHT22;6970;51.340;3.240;2022-12-29T09:27:31;10.30;99.90
13798;DHT22;6970;51.340;3.240;2022-12-29T09:30:03;10.50;99.90
13798;DHT22;6970;51.340;3.240;2022-12-29T09:32:30;11.00;99.90
13798;DHT22;6970;51.340;3.240;2022-12-29T09:35:00;11.50;99.90
13798;DHT22;6970;51.340;3.240;2022-12-29T09:37:30;12.10;99.90
13798;DHT22;6970;51.340;3.240;2022-12-29T09:40:05;12.60;99.90
13798;DHT22;6970;51.340;3.240;2022-12-29T09:42:40;12.90;99.90
13798;DHT22;6970;51.340;3.240;2022-12-29T09:45:20;13.40;99.90
13798;DHT22;6970;51.340;3.240;2022-12-29T09:47:54;14.00;99.90
13798;DHT22;6970;51.340;3.240;2022-12-29T09:50:33;14.50;99.90
13798;DHT22;6970;51.340;3.240;2022-12-29T09:53:15;14.90;99.90
13798;DHT22;6970;51.340;3.240;2022-12-29T09:55:52;15.20;99.90
13798;DHT22;6970;51.340;3.240;2022-12-29T09:58:37;15.20;99.90
13798;DHT22;6970;51.340;3.240;2022-12-29T10:04:21;14.80;99.90
13798;DHT22;6970;51.340;3.240;2022-12-29T10:07:11;15.00;99.90
13798;DHT22;6970;51.340;3.240;2022-12-29T10:12:52;14.90;99.90
13798;DHT22;6970;51.340;3.240;2022-12-29T10:21:00;14.40;99.90
13798;DHT22;6970;51.340;3.240;2022-12-29T10:23:39;14.00;99.90
13798;DHT22;6970;51.340;3.240;2022-12-29T10:26:15;13.60;99.90
13798;DHT22;6970;51.340;3.240;2022-12-29T10:29:08;13.00;99.90
13798;DHT22;6970;51.340;3.240;2022-12-29T10:31:46;12.80;99.90
13798;DHT22;6970;51.340;3.240;2022-12-29T10:34:33;12.50;99.90
13798;DHT22;6970;51.340;3.240;2022-12-29T10:46:33;13.20;99.90
13798;DHT22;6970;51.340;3.240;2022-12-29T10:49:01;13.30;99.90
13798;DHT22;6970;51.340;3.240;2022-12-29T10:51:32;13.10;99.90
13798;DHT22;6970;51.340;3.240;2022-12-29T10:56:40;12.50;99.90
13798;DHT22;6970;51.340;3.240;2022-12-29T11:07:20;12.10;99.90
13798;DHT22;6970;51.340;3.240;2022-12-29T11:09:53;12.00;99.90
13798;DHT22;6970;51.340;3.240;2022-12-29T11:12:31;11.90;99.90
13798;DHT22;6970;51.340;3.240;2022-12-29T11:15:15;11.90;99.90
13798;DHT22;6970;51.340;3.240;2022-12-29T11:17:57;11.80;99.90
13798;DHT22;6970;51.340;3.240;2022-12-29T11:20:38;11.80;99.90
13798;DHT22;6970;51.340;3.240;2022-12-29T11:28:40;11.50;99.90
13798;DHT22;6970;51.340;3.240;2022-12-29T11:31:10;11.50;99.90
13798;DHT22;6970;51.340;3.240;2022-12-29T11:33:41;11.40;99.90
13798;DHT22;6970;51.340;3.240;2022-12-29T11:36:21;11.30;99.90
13798;DHT22;6970;51.340;3.240;2022-12-29T11:38:53;11.30;99.90
13798;DHT22;6970;51.340;3.240;2022-12-29T11:41:29;11.20;99.90
13798;DHT22;6970;51.340;3.240;2022-12-29T11:44:03;11.20;99.90
13798;DHT22;6970;51.340;3.240;2022-12-29T11:46:34;11.00;99.90
13798;DHT22;6970;51.340;3.240;2022-12-29T11:49:22;10.90;99.90
13798;DHT22;6970;51.340;3.240;2022-12-29T11:51:53;10.80;99.90
13798;DHT22;6970;51.340;3.240;2022-12-29T11:54:36;10.70;99.90
13798;DHT22;6970;51.340;3.240;2022-12-29T11:57:13;10.60;99.90
13798;DHT22;6970;51.340;3.240;2022-12-29T11:59:52;10.60;99.90
13798;DHT22;6970;51.340;3.240;2022-12-29T12:02:46;10.60;99.90
13798;DHT22;6970;51.340;3.240;2022-12-29T12:11:36;11.00;99.90
13798;DHT22;6970;51.340;3.240;2022-12-29T12:14:25;10.90;99.90
13798;DHT22;6970;51.340;3.240;2022-12-29T12:17:19;10.90;99.90
13798;DHT22;6970;51.340;3.240;2022-12-29T12:20:22;10.80;99.90
13798;DHT22;6970;51.340;3.240;2022-12-29T12:26:12;10.60;99.90
13798;DHT22;6970;51.340;3.240;2022-12-29T12:32:01;10.50;99.90
13798;DHT22;6970;51.340;3.240;2022-12-29T12:34:36;10.50;99.90
13798;DHT22;6970;51.340;3.240;2022-12-29T12:37:39;10.40;99.90
13798;DHT22;6970;51.340;3.240;2022-12-29T12:45:45;10.30;99.90
13798;DHT22;6970;51.340;3.240;2022-12-29T13:05:50;10.70;99.90
13798;DHT22;6970;51.340;3.240;2022-12-29T13:14:05;10.50;99.90
13798;DHT22;6970;51.340;3.240;2022-12-29T13:22:34;10.30;99.90
13798;DHT22;6970;51.340;3.240;2022-12-29T13:25:27;10.30;99.90
13798;DHT22;6970;51.340;3.240;2022-12-29T13:28:25;10.20;99.90
13798;DHT22;6970;51.340;3.240;2022-12-29T13:39:22;10.10;99.90
13798;DHT22;6970;51.340;3.240;2022-12-29T13:41:55;10.10;99.90
13798;DHT22;6970;51.340;3.240;2022-12-29T13:44:27;10.10;99.90
13798;DHT22;6970;51.340;3.240;2022-12-29T13:47:06;10.10;99.90
13798;DHT22;6970;51.340;3.240;2022-12-29T13:49:44;10.00;99.90
13798;DHT22;6970;51.340;3.240;2022-12-29T13:55:44;9.80;99.90
13798;DHT22;6970;51.340;3.240;2022-12-29T14:01:34;9.70;99.90
13798;DHT22;6970;51.340;3.240;2022-12-29T14:04:25;9.60;99.90
13798;DHT22;6970;51.340;3.240;2022-12-29T14:06:59;9.60;99.90
13798;DHT22;6970;51.340;3.240;2022-12-29T14:09:48;9.50;99.90
13798;DHT22;6970;51.340;3.240;2022-12-29T14:17:40;9.40;99.90
13798;DHT22;6970;51.340;3.240;2022-12-29T14:20:21;9.40;99.90
13798;DHT22;6970;51.340;3.240;2022-12-29T14:23:24;9.30;99.90
13798;DHT22;6970;51.340;3.240;2022-12-29T14:28:35;9.30;99.90
13798;DHT22;6970;51.340;3.240;2022-12-29T14:33:33;9.20;99.90
13798;DHT22;6970;51.340;3.240;2022-12-29T14:39:32;9.10;99.90
13798;DHT22;6970;51.340;3.240;2022-12-29T14:45:06;9.10;99.90
13798;DHT22;6970;51.340;3.240;2022-12-29T14:52:57;9.10;99.90
13798;DHT22;6970;51.340;3.240;2022-12-29T14:55:54;9.00;99.90
13798;DHT22;6970;51.340;3.240;2022-12-29T15:01:20;9.00;99.90
13798;DHT22;6970;51.340;3.240;2022-12-29T15:03:53;9.00;99.90
13798;DHT22;6970;51.340;3.240;2022-12-29T15:06:23;9.00;99.90
13798;DHT22;6970;51.340;3.240;2022-12-29T15:14:56;8.90;99.90
13798;DHT22;6970;51.340;3.240;2022-12-29T15:20:01;8.90;99.90
13798;DHT22;6970;51.340;3.240;2022-12-29T15:22:53;8.90;99.90
13798;DHT22;6970;51.340;3.240;2022-12-29T15:25:24;8.90;99.90
13798;DHT22;6970;51.340;3.240;2022-12-29T15:28:04;8.90;99.90
13798;DHT22;6970;51.340;3.240;2022-12-29T15:30:33;8.90;99.90
13798;DHT22;6970;51.340;3.240;2022-12-29T15:33:00;8.90;99.90
13798;DHT22;6970;51.340;3.240;2022-12-29T15:35:35;8.80;99.90
13798;DHT22;6970;51.340;3.240;2022-12-29T15:38:25;8.80;99.90
13798;DHT22;6970;51.340;3.240;2022-12-29T15:41:06;8.70;99.90
13798;DHT22;6970;51.340;3.240;2022-12-29T15:46:37;8.60;99.90
13798;DHT22;6970;51.340;3.240;2022-12-29T15:49:08;8.50;99.90
13798;DHT22;6970;51.340;3.240;2022-12-29T15:51:38;8.50;99.90
13798;DHT22;6970;51.340;3.240;2022-12-29T15:54:19;8.40;99.90
13798;DHT22;6970;51.340;3.240;2022-12-29T15:56:47;8.40;99.90
13798;DHT22;6970;51.340;3.240;2022-12-29T15:59:30;8.40;99.90
13798;DHT22;6970;51.340;3.240;2022-12-29T16:01:58;8.30;99.90
13798;DHT22;6970;51.340;3.240;2022-12-29T16:04:30;8.30;99.90
13798;DHT22;6970;51.340;3.240;2022-12-29T16:07:32;8.20;99.90
13798;DHT22;6970;51.340;3.240;2022-12-29T16:10:31;8.20;99.90
13798;DHT22;6970;51.340;3.240;2022-12-29T16:15:39;8.20;99.90
13798;DHT22;6970;51.340;3.240;2022-12-29T16:18:27;8.10;99.90
13798;DHT22;6970;51.340;3.240;2022-12-29T16:20:55;8.10;99.90
13798;DHT22;6970;51.340;3.240;2022-12-29T16:23:27;8.10;99.90
13798;DHT22;6970;51.340;3.240;2022-12-29T16:25:56;8.10;99.90
13798;DHT22;6970;51.340;3.240;2022-12-29T16:28:30;8.10;99.90
13798;DHT22;6970;51.340;3.240;2022-12-29T16:31:05;8.00;99.90
13798;DHT22;6970;51.340;3.240;2022-12-29T16:33:54;8.00;99.90
13798;DHT22;6970;51.340;3.240;2022-12-29T16:36:40;8.00;99.90
13798;DHT22;6970;51.340;3.240;2022-12-29T16:39:38;7.90;99.90
13798;DHT22;6970;51.340;3.240;2022-12-29T16:50:42;7.80;99.90
13798;DHT22;6970;51.340;3.240;2022-12-29T16:53:25;7.80;99.90
13798;DHT22;6970;51.340;3.240;2022-12-29T16:55:55;7.80;99.90
13798;DHT22;6970;51.340;3.240;2022-12-29T16:58:27;7.80;99.90
13798;DHT22;6970;51.340;3.240;2022-12-29T17:00:58;7.80;99.90
13798;DHT22;6970;51.340;3.240;2022-12-29T17:03:32;7.80;99.90
13798;DHT22;6970;51.340;3.240;2022-12-29T17:06:02;7.80;99.90
13798;DHT22;6970;51.340;3.240;2022-12-29T17:08:39;7.80;99.90
13798;DHT22;6970;51.340;3.240;2022-12-29T17:16:52;7.90;99.90
13798;DHT22;6970;51.340;3.240;2022-12-29T17:19:34;8.00;99.90
13798;DHT22;6970;51.340;3.240;2022-12-29T17:22:02;8.00;99.90
13798;DHT22;6970;51.340;3.240;2022-12-29T17:24:32;8.00;99.90
13798;DHT22;6970;51.340;3.240;2022-12-29T17:26:59;8.00;99.90
13798;DHT22;6970;51.340;3.240;2022-12-29T17:29:38;8.00;99.90
13798;DHT22;6970;51.340;3.240;2022-12-29T17:32:10;8.00;99.90
13798;DHT22;6970;51.340;3.240;2022-12-29T17:34:41;7.90;99.90
13798;DHT22;6970;51.340;3.240;2022-12-29T17:39:56;8.00;99.90
13798;DHT22;6970;51.340;3.240;2022-12-29T17:42:26;8.00;99.90
13798;DHT22;6970;51.340;3.240;2022-12-29T17:44:56;8.00;99.90
13798;DHT22;6970;51.340;3.240;2022-12-29T17:47:26;8.00;99.90
13798;DHT22;6970;51.340;3.240;2022-12-29T17:49:56;8.00;99.90
13798;DHT22;6970;51.340;3.240;2022-12-29T17:52:26;8.00;99.90
13798;DHT22;6970;51.340;3.240;2022-12-29T17:54:56;8.10;99.90
13798;DHT22;6970;51.340;3.240;2022-12-29T17:57:26;8.10;99.90
13798;DHT22;6970;51.340;3.240;2022-12-29T17:59:56;8.10;99.90
13798;DHT22;6970;51.340;3.240;2022-12-29T18:02:30;8.10;99.90
13798;DHT22;6970;51.340;3.240;2022-12-29T18:05:01;8.10;99.90
13798;DHT22;6970;51.340;3.240;2022-12-29T18:07:31;8.20;99.90
13798;DHT22;6970;51.340;3.240;2022-12-29T18:10:05;8.20;99.90
13798;DHT22;6970;51.340;3.240;2022-12-29T18:12:39;8.20;99.90
13798;DHT22;6970;51.340;3.240;2022-12-29T18:15:17;8.20;99.90
13798;DHT22;6970;51.340;3.240;2022-12-29T18:17:45;8.20;99.90
13798;DHT22;6970;51.340;3.240;2022-12-29T18:20:15;8.20;99.90
13798;DHT22;6970;51.340;3.240;2022-12-29T18:22:42;8.20;99.90
13798;DHT22;6970;51.340;3.240;2022-12-29T18:25:29;8.20;99.90
13798;DHT22;6970;51.340;3.240;2022-12-29T18:28:16;8.20;99.90
13798;DHT22;6970;51.340;3.240;2022-12-29T18:30:44;8.10;99.90
13798;DHT22;6970;51.340;3.240;2022-12-29T18:33:16;8.10;99.90
13798;DHT22;6970;51.340;3.240;2022-12-29T18:36:03;8.10;99.90
13798;DHT22;6970;51.340;3.240;2022-12-29T18:38:32;8.10;99.90
13798;DHT22;6970;51.340;3.240;2022-12-29T18:41:02;8.10;99.90
13798;DHT22;6970;51.340;3.240;2022-12-29T18:43:32;8.00;99.90
13798;DHT22;6970;51.340;3.240;2022-12-29T18:46:00;8.00;99.90
13798;DHT22;6970;51.340;3.240;2022-12-29T18:48:30;8.00;99.90
13798;DHT22;6970;51.340;3.240;2022-12-29T18:51:00;8.00;99.90
13798;DHT22;6970;51.340;3.240;2022-12-29T18:53:27;7.90;99.90
13798;DHT22;6970;51.340;3.240;2022-12-29T18:55:53;7.90;99.90
13798;DHT22;6970;51.340;3.240;2022-12-29T18:58:24;7.90;99.90
13798;DHT22;6970;51.340;3.240;2022-12-29T19:01:03;7.90;99.90
13798;DHT22;6970;51.340;3.240;2022-12-29T19:03:31;7.90;99.90
13798;DHT22;6970;51.340;3.240;2022-12-29T19:05:58;7.90;99.90
13798;DHT22;6970;51.340;3.240;2022-12-29T19:08:26;7.90;99.90
13798;DHT22;6970;51.340;3.240;2022-12-29T19:10:54;7.90;99.90
13798;DHT22;6970;51.340;3.240;2022-12-29T19:13:22;7.80;99.90
13798;DHT22;6970;51.340;3.240;2022-12-29T19:15:57;7.90;99.90
13798;DHT22;6970;51.340;3.240;2022-12-29T19:18:28;7.90;99.90
13798;DHT22;6970;51.340;3.240;2022-12-29T19:21:13;7.90;99.90
13798;DHT22;6970;51.340;3.240;2022-12-29T19:23:40;7.90;99.90
13798;DHT22;6970;51.340;3.240;2022-12-29T19:29:14;7.80;99.90
13798;DHT22;6970;51.340;3.240;2022-12-29T19:31:43;7.80;99.90
13798;DHT22;6970;51.340;3.240;2022-12-29T19:34:21;7.80;99.90
13798;DHT22;6970;51.340;3.240;2022-12-29T19:36:51;7.70;99.90
13798;DHT22;6970;51.340;3.240;2022-12-29T19:39:19;7.70;99.90
13798;DHT22;6970;51.340;3.240;2022-12-29T19:41:49;7.70;99.90
13798;DHT22;6970;51.340;3.240;2022-12-29T19:44:16;7.70;99.90
13798;DHT22;6970;51.340;3.240;2022-12-29T19:46:46;7.70;99.90
13798;DHT22;6970;51.340;3.240;2022-12-29T19:49:16;7.60;99.90